Time;durP1;ratioP1;P1;durP2;ratioP2;P2;SDS_P1;SDS_P2;PMS_P1;PMS_P2;Temp;Humidity;BMP_temperature;BMP_pressure;BME280_temperature;BME280_humidity;BME280_pressure;Samples;Min_cycle;Max_cycle;Signal;HPM_P1;HPM_P2
2022/02/13 00:01:33;;;;;;;25.50;13.60;;;;;;;-2.22;75.78;101866.67;88190;1277;100430;-59
2022/02/13 00:03:39;;;;;;;26.50;14.10;;;;;;;-2.22;75.72;101863.31;88173;1276;88300;-57
2022/02/13 00:05:52;;;;;;;26.00;14.00;;;;;;;-2.24;75.72;101862.73;88161;1277;95578;-58
2022/02/13 00:08:01;;;;;;;21.10;11.70;;;;;;;-2.28;75.61;101860.60;88209;1277;78341;-58
2022/02/13 00:10:14;;;;;;;25.50;13.80;;;;;;;-2.30;75.80;101856.65;88205;1277;81587;-58
2022/02/13 00:12:19;;;;;;;28.30;13.70;;;;;;;-2.33;75.90;101850.98;88183;1277;98319;-58
2022/02/13 00:14:29;;;;;;;23.90;13.00;;;;;;;-2.32;75.60;101850.05;88178;1277;86901;-58
2022/02/13 00:16:37;;;;;;;28.80;15.00;;;;;;;-2.35;75.62;101851.77;88167;1277;93586;-77
2022/02/13 00:18:43;;;;;;;25.60;13.10;;;;;;;-2.40;75.64;101847.02;88180;1277;79644;-79
2022/02/13 00:20:59;;;;;;;28.20;13.40;;;;;;;-2.43;75.79;101852.99;88208;1277;80710;-57
2022/02/13 00:23:09;;;;;;;24.50;13.80;;;;;;;-2.43;75.52;101847.52;88118;1276;99494;-58
2022/02/13 00:25:15;;;;;;;28.00;12.90;;;;;;;-2.44;75.66;101845.44;88181;1277;87803;-77
2022/02/13 00:27:26;;;;;;;27.10;12.90;;;;;;;-2.46;75.68;101839.58;88181;1277;94275;-80
2022/02/13 00:29:35;;;;;;;24.70;12.40;;;;;;;-2.45;75.81;101830.55;88142;1277;80601;-79
2022/02/13 00:31:44;;;;;;;25.70;12.80;;;;;;;-2.45;75.85;101829.83;88187;1277;83175;-57
2022/02/13 00:33:53;;;;;;;28.60;12.40;;;;;;;-2.43;75.99;101827.23;88198;1277;100525;-57
2022/02/13 00:36:02;;;;;;;24.00;12.70;;;;;;;-2.37;76.06;101822.79;88151;1276;89559;-58
2022/02/13 00:38:08;;;;;;;23.20;11.80;;;;;;;-2.31;75.95;101814.37;88192;1277;92215;-59
2022/02/13 00:40:16;;;;;;;27.90;12.80;;;;;;;-2.30;75.91;101815.34;88216;1275;77517;-78
2022/02/13 00:42:22;;;;;;;22.40;11.80;;;;;;;-2.34;75.94;101818.71;88200;1276;81989;-78
2022/02/13 00:44:28;;;;;;;23.30;12.10;;;;;;;-2.33;75.79;101811.66;88184;1277;99715;-79
2022/02/13 00:46:34;;;;;;;24.70;11.50;;;;;;;-2.34;75.71;101808.83;88185;1277;88978;-78
2022/02/13 00:48:43;;;;;;;24.20;12.20;;;;;;;-2.35;75.58;101812.27;88180;1277;95473;-78
2022/02/13 00:50:49;;;;;;;24.50;11.90;;;;;;;-2.36;75.86;101799.96;88187;1277;77598;-58
2022/02/13 00:52:58;;;;;;;25.80;12.80;;;;;;;-2.37;75.60;101790.98;88171;1277;80336;-59
2022/02/13 00:55:08;;;;;;;27.40;13.80;;;;;;;-2.41;75.43;101789.92;88195;1277;98230;-78
2022/02/13 00:57:19;;;;;;;24.30;12.90;;;;;;;-2.43;75.27;101787.92;88083;1276;88065;-77
2022/02/13 00:59:28;;;;;;;25.00;12.20;;;;;;;-2.40;75.46;101776.31;88193;1277;95453;-77
2022/02/13 01:01:37;;;;;;;27.60;12.80;;;;;;;-2.39;75.51;101776.95;88177;1277;81745;-78
2022/02/13 01:03:43;;;;;;;22.50;11.80;;;;;;;-2.36;75.65;101776.64;88179;1277;79623;-77
2022/02/13 01:05:49;;;;;;;30.20;12.20;;;;;;;-2.32;75.69;101769.08;88202;1277;99817;-78
2022/02/13 01:07:57;;;;;;;28.90;13.20;;;;;;;-2.31;75.70;101762.83;88205;1277;89672;-78
2022/02/13 01:10:03;;;;;;;28.30;13.40;;;;;;;-2.24;75.64;101757.57;88182;1277;96145;-78
2022/02/13 01:12:11;;;;;;;28.90;13.20;;;;;;;-2.20;75.62;101755.08;88171;1277;80139;-79
2022/02/13 01:14:17;;;;;;;28.80;13.10;;;;;;;-2.20;75.36;101755.05;88192;1277;82039;-79
2022/02/13 01:16:26;;;;;;;25.70;13.40;;;;;;;-2.21;75.24;101745.23;88203;1276;98148;-78
2022/02/13 01:18:32;;;;;;;29.40;13.60;;;;;;;-2.22;75.26;101744.95;88216;1277;87772;-78
2022/02/13 01:20:41;;;;;;;27.50;13.50;;;;;;;-2.22;75.14;101733.27;88181;1277;94947;-58
2022/02/13 01:22:47;;;;;;;27.20;13.80;;;;;;;-2.25;75.06;101727.08;88144;1276;79365;-75
2022/02/13 01:24:52;;;;;;;28.00;13.30;;;;;;;-2.30;75.17;101724.52;88207;1277;80738;-57
2022/02/13 01:26:59;;;;;;;28.70;12.60;;;;;;;-2.33;75.04;101719.18;88168;1277;99273;-57
2022/02/13 01:29:04;;;;;;;28.80;12.90;;;;;;;-2.36;75.36;101717.75;88184;1277;87977;-57
2022/02/13 01:31:10;;;;;;;28.70;13.10;;;;;;;-2.36;75.29;101708.43;88211;1276;94214;-75
2022/02/13 01:33:16;;;;;;;26.90;12.70;;;;;;;-2.38;75.31;101709.58;88145;1277;79736;-75
2022/02/13 01:35:22;;;;;;;25.30;12.50;;;;;;;-2.37;75.25;101707.38;88212;1277;80890;-57
2022/02/13 01:37:32;;;;;;;23.80;12.20;;;;;;;-2.36;75.42;101701.00;88158;1277;99258;-57
2022/02/13 01:39:38;;;;;;;25.00;12.50;;;;;;;-2.33;75.18;101701.92;88210;1277;88201;-59
2022/02/13 01:41:49;;;;;;;28.40;12.90;;;;;;;-2.31;75.20;101695.11;88181;1276;94694;-58
2022/02/13 01:43:58;;;;;;;33.60;13.30;;;;;;;-2.26;75.40;101692.20;88211;1277;79124;-58
2022/02/13 01:46:03;;;;;;;25.10;11.20;;;;;;;-2.25;75.29;101688.05;88207;1277;81095;-78
2022/02/13 01:48:09;;;;;;;26.40;12.70;;;;;;;-2.27;75.35;101686.58;88197;1275;98880;-79
2022/02/13 01:50:15;;;;;;;25.40;13.20;;;;;;;-2.29;75.28;101683.38;88147;1277;88705;-59
2022/02/13 01:52:20;;;;;;;23.30;11.90;;;;;;;-2.32;75.12;101677.33;88171;1277;96465;-58
2022/02/13 01:54:26;;;;;;;23.60;12.00;;;;;;;-2.35;74.97;101681.52;88162;1277;78611;-58
2022/02/13 01:56:32;;;;;;;24.80;12.30;;;;;;;-2.39;75.26;101676.23;88197;1277;81031;-78
2022/02/13 01:58:40;;;;;;;23.30;13.20;;;;;;;-2.42;75.05;101674.65;88173;1277;100344;-79
2022/02/13 02:00:46;;;;;;;27.10;12.70;;;;;;;-2.43;75.17;101670.82;88180;1277;87722;-58
2022/02/13 02:02:55;;;;;;;28.20;13.30;;;;;;;-2.42;75.36;101669.36;88201;1277;95376;-58
2022/02/13 02:05:02;;;;;;;27.10;13.40;;;;;;;-2.43;75.12;101665.02;88181;1277;82111;-59
2022/02/13 02:07:10;;;;;;;24.30;11.30;;;;;;;-2.42;75.22;101667.95;88192;1277;81521;-57
2022/02/13 02:09:19;;;;;;;24.60;11.70;;;;;;;-2.41;75.41;101664.02;88201;1277;98422;-57
2022/02/13 02:11:26;;;;;;;24.20;12.30;;;;;;;-2.36;75.38;101662.36;88238;1277;89551;-79
2022/02/13 02:13:32;;;;;;;25.70;12.30;;;;;;;-2.35;75.25;101661.61;88237;1277;96033;-78
2022/02/13 02:15:38;;;;;;;31.40;12.70;;;;;;;-2.34;75.20;101660.84;88286;1277;77196;-57
2022/02/13 02:17:45;;;;;;;24.60;11.70;;;;;;;-2.33;75.21;101655.50;88203;1277;82879;-58
2022/02/13 02:19:52;;;;;;;24.50;11.50;;;;;;;-2.32;75.24;101650.15;88174;1276;99524;-78
2022/02/13 02:21:58;;;;;;;23.30;11.80;;;;;;;-2.34;75.18;101648.34;88179;1276;87105;-79
2022/02/13 02:24:09;;;;;;;28.10;12.80;;;;;;;-2.35;75.25;101651.01;88120;1276;93835;-77
2022/02/13 02:26:18;;;;;;;26.00;12.40;;;;;;;-2.36;75.18;101650.75;88177;1276;78881;-78
2022/02/13 02:28:25;;;;;;;26.00;13.30;;;;;;;-2.38;74.99;101644.47;88188;1276;82238;-78
2022/02/13 02:30:33;;;;;;;27.40;13.30;;;;;;;-2.42;75.18;101644.31;88153;1276;97901;-78
2022/02/13 02:32:39;;;;;;;27.30;12.40;;;;;;;-2.47;75.10;101642.23;88182;1276;87011;-78
2022/02/13 02:34:45;;;;;;;28.50;13.20;;;;;;;-2.52;75.19;101641.63;88114;1278;93888;-79
2022/02/13 02:36:51;;;;;;;22.70;11.90;;;;;;;-2.56;75.02;101645.00;88151;1276;81499;-78
2022/02/13 02:38:56;;;;;;;24.60;13.20;;;;;;;-2.59;75.08;101634.94;88167;1276;80843;-76
2022/02/13 02:41:02;;;;;;;26.50;12.70;;;;;;;-2.58;75.16;101636.98;88148;1277;100079;-77
2022/02/13 02:43:11;;;;;;;29.00;12.90;;;;;;;-2.57;75.10;101627.44;88227;1277;89181;-77
2022/02/13 02:45:20;;;;;;;28.30;14.00;;;;;;;-2.53;75.32;101630.96;88150;1276;95709;-77
2022/02/13 02:47:29;;;;;;;30.20;13.70;;;;;;;-2.49;75.57;101627.23;88174;1276;78891;-77
2022/02/13 02:49:36;;;;;;;26.90;12.90;;;;;;;-2.46;75.40;101623.70;88226;1276;81001;-62
2022/02/13 02:51:44;;;;;;;30.30;13.20;;;;;;;-2.45;75.24;101626.83;88162;1276;100425;-77
2022/02/13 02:53:53;;;;;;;30.90;14.20;;;;;;;-2.44;75.18;101623.61;88179;1276;88430;-77
2022/02/13 02:56:03;;;;;;;30.50;14.10;;;;;;;-2.44;75.32;101623.44;88174;1276;95964;-58
2022/02/13 02:58:12;;;;;;;26.30;13.70;;;;;;;-2.48;75.18;101621.14;88061;1277;77748;-57
2022/02/13 03:00:18;;;;;;;28.30;14.00;;;;;;;-2.54;75.11;101616.86;88162;1276;81706;-76
2022/02/13 03:02:23;;;;;;;28.20;13.90;;;;;;;-2.58;75.12;101615.67;88173;1277;98404;-78
2022/02/13 03:04:33;;;;;;;28.60;13.40;;;;;;;-2.62;75.36;101607.79;88209;1277;88090;-77
2022/02/13 03:06:41;;;;;;;29.60;13.40;;;;;;;-2.66;75.21;101611.15;88228;1277;93483;-78
2022/02/13 03:08:46;;;;;;;26.10;12.50;;;;;;;-2.71;75.51;101608.40;88199;1277;79398;-77
2022/02/13 03:10:55;;;;;;;28.10;12.70;;;;;;;-2.73;75.26;101600.73;88187;1277;81933;-57
2022/02/13 03:13:01;;;;;;;30.50;14.40;;;;;;;-2.75;75.28;101596.98;88181;1275;98151;-57
2022/02/13 03:15:11;;;;;;;26.30;13.60;;;;;;;-2.79;75.48;101588.50;88176;1277;87673;-57
2022/02/13 03:17:19;;;;;;;28.70;13.20;;;;;;;-2.76;75.52;101589.61;88167;1277;95221;-57
2022/02/13 03:19:25;;;;;;;29.10;14.30;;;;;;;-2.73;75.70;101580.83;88174;1277;79283;-58
2022/02/13 03:21:34;;;;;;;28.80;12.70;;;;;;;-2.68;75.65;101586.23;88196;1277;82963;-76
2022/02/13 03:23:43;;;;;;;25.50;12.80;;;;;;;-2.68;75.51;101578.81;88213;1277;97410;-76
2022/02/13 03:25:49;;;;;;;30.10;13.30;;;;;;;-2.65;75.45;101590.09;88212;1276;88930;-77
2022/02/13 03:27:57;;;;;;;25.90;13.40;;;;;;;-2.68;75.72;101592.01;88186;1274;95133;-77
2022/02/13 03:30:08;;;;;;;30.90;14.30;;;;;;;-2.72;75.32;101579.02;88181;1277;78710;-56
2022/02/13 03:32:17;;;;;;;29.10;14.30;;;;;;;-2.71;75.46;101573.66;88198;1275;82378;-58
2022/02/13 03:34:23;;;;;;;33.00;14.10;;;;;;;-2.72;75.34;101574.40;88179;1277;100001;-57
2022/02/13 03:36:28;;;;;;;26.70;13.20;;;;;;;-2.77;75.48;101572.73;87456;1277;967339;-57
2022/02/13 03:38:34;;;;;;;26.00;12.20;;;;;;;-2.82;75.23;101577.05;88182;1275;94571;-56
2022/02/13 03:40:43;;;;;;;27.90;13.40;;;;;;;-2.88;75.31;101569.25;88184;1277;80161;-76
2022/02/13 03:42:49;;;;;;;27.00;13.30;;;;;;;-2.89;75.43;101568.08;88199;1277;80803;-78
2022/02/13 03:44:54;;;;;;;34.80;14.20;;;;;;;-2.90;75.54;101568.27;88203;1275;100060;-76
2022/02/13 03:47:00;;;;;;;25.10;11.90;;;;;;;-2.94;75.53;101562.81;88221;1275;88704;-77
2022/02/13 03:49:07;;;;;;;24.20;12.60;;;;;;;-2.93;75.85;101557.52;88188;1277;93334;-77
2022/02/13 03:51:17;;;;;;;26.20;12.20;;;;;;;-2.87;75.70;101558.80;88204;1275;77392;-77
2022/02/13 03:53:22;;;;;;;25.90;12.10;;;;;;;-2.82;75.69;101552.88;88239;1277;79905;-77
2022/02/13 03:55:30;;;;;;;24.80;12.20;;;;;;;-2.78;75.52;101550.56;88208;1276;99916;-79
2022/02/13 03:57:39;;;;;;;22.40;12.60;;;;;;;-2.76;75.62;101551.36;88218;1277;88585;-78
2022/02/13 03:59:44;;;;;;;28.30;12.70;;;;;;;-2.76;75.54;101553.10;88207;1276;96277;-57
2022/02/13 04:01:50;;;;;;;24.80;13.10;;;;;;;-2.74;75.52;101550.55;88184;1277;78646;-57
2022/02/13 04:03:56;;;;;;;25.80;13.20;;;;;;;-2.74;75.40;101549.66;88175;1277;80745;-57
2022/02/13 04:06:03;;;;;;;24.50;12.20;;;;;;;-2.78;75.36;101546.70;88164;1276;98410;-57
2022/02/13 04:08:09;;;;;;;24.10;12.60;;;;;;;-2.78;75.18;101546.50;88188;1277;88811;-57
2022/02/13 04:10:15;;;;;;;21.70;10.70;;;;;;;-2.81;75.30;101551.61;88162;1277;95542;-58
2022/02/13 04:12:24;;;;;;;25.50;11.50;;;;;;;-2.88;75.39;101546.84;88184;1277;78549;-57
2022/02/13 04:14:30;;;;;;;23.50;11.50;;;;;;;-2.93;75.38;101542.33;88193;1277;83182;-56
2022/02/13 04:16:35;;;;;;;21.70;10.80;;;;;;;-2.97;75.41;101535.84;88186;1276;99415;-57
2022/02/13 04:18:41;;;;;;;24.30;11.50;;;;;;;-3.00;75.30;101531.92;88164;1276;88986;-57
2022/02/13 04:20:47;;;;;;;22.30;11.70;;;;;;;-3.00;75.37;101529.09;88216;1275;93131;-58
2022/02/13 04:22:53;;;;;;;26.10;11.50;;;;;;;-2.94;75.47;101527.59;88158;1277;79454;-57
2022/02/13 04:24:59;;;;;;;21.70;10.40;;;;;;;-2.89;75.60;101525.77;88193;1276;80524;-57
2022/02/13 04:27:07;;;;;;;26.60;12.30;;;;;;;-2.85;75.61;101526.96;88144;1275;100406;-56
2022/02/13 04:29:17;;;;;;;20.30;10.10;;;;;;;-2.82;75.70;101516.40;88169;1276;87312;-57
2022/02/13 04:31:23;;;;;;;24.20;11.20;;;;;;;-2.82;75.45;101519.05;88169;1274;95868;-57
2022/02/13 04:33:28;;;;;;;21.50;10.90;;;;;;;-2.79;75.55;101515.70;88125;1276;78445;-57
2022/02/13 04:35:35;;;;;;;19.70;11.10;;;;;;;-2.77;75.40;101513.87;88195;1277;83226;-77
2022/02/13 04:37:44;;;;;;;22.90;10.50;;;;;;;-2.77;75.27;101512.45;88215;1277;99519;-77
2022/02/13 04:39:50;;;;;;;24.20;11.10;;;;;;;-2.81;75.24;101512.12;88203;1277;88958;-76
2022/02/13 04:41:59;;;;;;;19.90;11.50;;;;;;;-2.86;75.44;101510.81;88177;1277;95666;-77
2022/02/13 04:44:05;;;;;;;22.10;10.80;;;;;;;-2.90;75.12;101513.29;88228;1274;78865;-76
2022/02/13 04:46:11;;;;;;;22.10;10.70;;;;;;;-2.98;75.37;101510.68;88195;1277;81494;-57
2022/02/13 04:48:16;;;;;;;20.50;10.50;;;;;;;-3.02;75.39;101510.51;88151;1277;97153;-58
2022/02/13 04:50:22;;;;;;;23.50;10.40;;;;;;;-3.02;75.65;101502.94;88174;1276;87318;-56
2022/02/13 04:52:29;;;;;;;22.00;10.10;;;;;;;-3.05;75.54;101499.38;88169;1277;93557;-56
2022/02/13 04:54:38;;;;;;;22.50;10.60;;;;;;;-3.05;75.52;101495.20;88189;1277;78711;-73
2022/02/13 04:56:43;;;;;;;22.00;10.10;;;;;;;-3.05;75.54;101492.34;88372;1277;80778;-78
2022/02/13 04:58:49;;;;;;;22.10;11.00;;;;;;;-2.99;75.71;101495.06;88234;1277;98983;-79
2022/02/13 05:00:58;;;;;;;21.10;10.40;;;;;;;-2.93;75.60;101491.25;88165;1277;87517;-80
2022/02/13 05:03:03;;;;;;;19.40;10.00;;;;;;;-2.88;75.62;101492.57;88194;1277;94566;-79
2022/02/13 05:05:11;;;;;;;20.80;10.50;;;;;;;-2.84;75.68;101492.91;88174;1277;77533;-58
2022/02/13 05:07:19;;;;;;;24.10;9.90;;;;;;;-2.84;75.67;101488.49;88199;1275;81845;-58
2022/02/13 05:09:25;;;;;;;18.10;9.60;;;;;;;-2.83;75.46;101487.59;88179;1277;99671;-58
2022/02/13 05:11:33;;;;;;;16.70;10.30;;;;;;;-2.86;75.40;101487.67;88220;1276;88307;-58
2022/02/13 05:13:39;;;;;;;18.40;9.80;;;;;;;-2.87;75.57;101484.40;88143;1276;95624;-58
2022/02/13 05:15:45;;;;;;;14.90;7.60;;;;;;;-2.88;75.30;101482.73;88216;1276;77019;-79
2022/02/13 05:17:51;;;;;;;18.80;10.20;;;;;;;-2.91;75.44;101477.36;88205;1276;82166;-78
2022/02/13 05:19:57;;;;;;;23.20;10.60;;;;;;;-2.95;75.28;101481.49;88202;1276;99319;-57
2022/02/13 05:22:03;;;;;;;20.00;10.80;;;;;;;-3.01;75.71;101477.52;88154;1276;89426;-58
2022/02/13 05:24:09;;;;;;;18.50;10.00;;;;;;;-3.02;75.25;101480.39;88093;1276;94811;-57
2022/02/13 05:26:15;;;;;;;17.50;9.40;;;;;;;-3.05;75.44;101478.80;88213;1277;79631;-57
2022/02/13 05:28:20;;;;;;;18.50;9.40;;;;;;;-3.05;75.37;101475.29;88166;1277;79383;-57
2022/02/13 05:30:29;;;;;;;16.30;9.20;;;;;;;-3.05;75.41;101473.17;88135;1276;99419;-61
2022/02/13 05:32:35;;;;;;;20.30;9.60;;;;;;;-3.03;75.38;101471.62;88167;1276;89055;-60
2022/02/13 05:34:40;;;;;;;20.30;9.10;;;;;;;-3.00;75.69;101468.86;88165;1276;93939;-58
2022/02/13 05:36:50;;;;;;;19.70;9.10;;;;;;;-2.94;75.59;101474.38;88140;1276;79884;-62
2022/02/13 05:38:55;;;;;;;20.60;9.70;;;;;;;-2.89;75.72;101468.81;88180;1276;81701;-58
2022/02/13 05:41:05;;;;;;;17.90;9.00;;;;;;;-2.83;75.51;101470.80;88127;1276;99836;-77
2022/02/13 05:43:10;;;;;;;16.50;9.20;;;;;;;-2.80;75.42;101475.23;88191;1276;89714;-78
2022/02/13 05:45:16;;;;;;;18.10;8.60;;;;;;;-2.78;75.50;101472.67;88119;1276;94803;-58
2022/02/13 05:47:22;;;;;;;20.10;9.30;;;;;;;-2.79;75.32;101472.89;88169;1277;79733;-56
2022/02/13 05:49:28;;;;;;;21.50;9.60;;;;;;;-2.78;75.30;101475.16;88220;1277;82664;-57
2022/02/13 05:51:34;;;;;;;23.20;9.90;;;;;;;-2.81;75.42;101464.75;88126;1277;99820;-57
2022/02/13 05:53:40;;;;;;;20.30;9.40;;;;;;;-2.82;75.26;101464.42;88193;1277;88792;-62
2022/02/13 05:55:46;;;;;;;18.90;10.40;;;;;;;-2.85;75.46;101464.90;88182;1275;93769;-77
2022/02/13 05:57:54;;;;;;;19.50;8.70;;;;;;;-2.85;75.34;101468.61;88184;1274;78776;-78
2022/02/13 06:00:00;;;;;;;16.50;8.90;;;;;;;-2.84;75.25;101466.45;88181;1277;80461;-57
2022/02/13 06:02:07;;;;;;;20.30;9.20;;;;;;;-2.84;75.19;101463.11;88207;1276;96643;-58
2022/02/13 06:04:15;;;;;;;15.70;8.40;;;;;;;-2.82;75.33;101464.95;88188;1277;89521;-59
2022/02/13 06:06:21;;;;;;;15.70;8.50;;;;;;;-2.81;75.12;101461.37;88225;1277;94883;-58
2022/02/13 06:08:28;;;;;;;19.80;9.30;;;;;;;-2.76;75.32;101464.59;88154;1277;81267;-59
2022/02/13 06:10:37;;;;;;;16.60;9.10;;;;;;;-2.69;75.14;101460.37;88182;1277;82553;-79
2022/02/13 06:12:42;;;;;;;16.60;8.70;;;;;;;-2.62;75.36;101459.83;88189;1277;100313;-79
2022/02/13 06:14:48;;;;;;;16.90;9.60;;;;;;;-2.56;75.11;101458.45;88197;1277;88938;-78
2022/02/13 06:16:55;;;;;;;18.30;9.40;;;;;;;-2.49;75.21;101460.39;88189;1276;94537;-78
2022/02/13 06:19:00;;;;;;;20.30;9.10;;;;;;;-2.47;75.10;101458.16;88197;1276;77379;-78
2022/02/13 06:21:06;;;;;;;17.80;9.70;;;;;;;-2.46;75.19;101455.08;88207;1275;81727;-78
2022/02/13 06:23:12;;;;;;;15.80;9.10;;;;;;;-2.45;75.12;101455.06;88202;1277;100518;-77
2022/02/13 06:25:18;;;;;;;20.30;9.90;;;;;;;-2.45;75.09;101452.77;88235;1277;89153;-57
2022/02/13 06:27:24;;;;;;;19.20;10.00;;;;;;;-2.43;74.93;101452.83;88181;1277;95210;-58
2022/02/13 06:29:33;;;;;;;17.40;9.60;;;;;;;-2.43;74.78;101448.42;88162;1277;78313;-58
2022/02/13 06:31:39;;;;;;;18.80;10.60;;;;;;;-2.44;74.91;101453.06;88195;1277;82962;-58
2022/02/13 06:33:47;;;;;;;16.90;9.60;;;;;;;-2.44;74.96;101451.11;88182;1277;99242;-58
2022/02/13 06:35:56;;;;;;;19.50;9.80;;;;;;;-2.45;74.90;101446.39;88154;1277;89780;-59
2022/02/13 06:38:02;;;;;;;17.70;9.70;;;;;;;-2.43;74.67;101449.11;88156;1277;95765;-58
2022/02/13 06:40:13;;;;;;;20.00;9.50;;;;;;;-2.41;74.64;101449.00;88199;1277;78623;-77
2022/02/13 06:42:23;;;;;;;21.20;10.00;;;;;;;-2.36;74.77;101443.83;88168;1277;80627;-77
2022/02/13 06:44:32;;;;;;;21.90;10.10;;;;;;;-2.31;74.61;101442.50;88159;1277;97767;-76
2022/02/13 06:46:41;;;;;;;19.40;9.20;;;;;;;-2.24;74.78;101446.32;88195;1275;88058;-76
2022/02/13 06:48:47;;;;;;;16.80;9.80;;;;;;;-2.13;74.57;101446.08;88168;1277;93818;-79
2022/02/13 06:50:56;;;;;;;18.50;9.30;;;;;;;-1.96;74.51;101438.46;88175;1277;80100;-57
2022/02/13 06:53:02;;;;;;;22.40;10.90;;;;;;;-1.79;74.59;101439.27;88197;1277;82755;-57
2022/02/13 06:55:09;;;;;;;19.60;10.10;;;;;;;-1.56;74.49;101435.48;88180;1276;96372;-58
2022/02/13 06:57:15;;;;;;;17.90;9.90;;;;;;;-1.12;73.73;101434.48;88196;1277;88636;-57
2022/02/13 06:59:22;;;;;;;18.70;9.50;;;;;;;-0.99;73.83;101430.34;88204;1277;94206;-57
2022/02/13 07:01:31;;;;;;;20.10;11.20;;;;;;;-0.88;73.85;101430.04;88182;1275;77229;-57
2022/02/13 07:03:37;;;;;;;19.90;10.40;;;;;;;-0.69;74.13;101426.39;88223;1277;81182;-57
2022/02/13 07:05:46;;;;;;;20.90;11.30;;;;;;;-0.17;75.04;101420.36;88157;1277;99355;-57
2022/02/13 07:07:53;;;;;;;20.80;10.50;;;;;;;0.80;74.26;101417.89;88180;1275;88537;-57
2022/02/13 07:10:03;;;;;;;19.00;10.70;;;;;;;1.96;74.25;101413.46;88180;1277;94541;-79
2022/02/13 07:12:12;;;;;;;21.00;10.70;;;;;;;2.82;73.21;101411.70;88220;1277;76656;-79
2022/02/13 07:14:21;;;;;;;21.10;10.50;;;;;;;3.57;71.94;101406.12;88188;1277;83202;-79
2022/02/13 07:16:29;;;;;;;18.40;9.90;;;;;;;4.31;71.54;101402.42;88172;1277;99866;-80
2022/02/13 07:18:34;;;;;;;17.00;10.90;;;;;;;4.81;70.60;101400.36;88212;1277;89426;-79
2022/02/13 07:20:43;;;;;;;18.20;10.50;;;;;;;5.24;68.64;101395.31;88202;1276;95375;-58
2022/02/13 07:22:49;;;;;;;17.80;10.80;;;;;;;5.42;67.84;101393.38;88170;1276;78048;-58
2022/02/13 07:24:55;;;;;;;20.90;11.60;;;;;;;5.69;66.45;101384.25;88184;1277;80590;-59
2022/02/13 07:27:00;;;;;;;16.50;10.20;;;;;;;6.06;66.74;101383.61;88180;1277;98899;-58
2022/02/13 07:29:09;;;;;;;16.40;10.00;;;;;;;6.56;65.97;101383.16;88180;1277;88693;-59
2022/02/13 07:31:15;;;;;;;18.10;10.70;;;;;;;6.91;64.83;101383.53;88208;1277;95330;-80
2022/02/13 07:33:24;;;;;;;17.30;10.70;;;;;;;6.89;63.13;101385.62;88196;1277;80075;-79
2022/02/13 07:35:29;;;;;;;17.50;10.30;;;;;;;6.63;62.84;101387.55;88230;1277;82599;-80
2022/02/13 07:37:38;;;;;;;18.10;10.10;;;;;;;6.99;63.24;101381.28;88213;1277;100758;-80
2022/02/13 07:39:43;;;;;;;19.80;11.10;;;;;;;7.55;62.14;101373.61;88204;1277;89367;-56
2022/02/13 07:41:50;;;;;;;15.40;10.30;;;;;;;7.84;60.57;101369.43;88179;1277;94957;-57
2022/02/13 07:43:56;;;;;;;15.40;10.20;;;;;;;8.23;61.80;101365.39;88185;1277;78249;-58
2022/02/13 07:46:02;;;;;;;18.00;11.50;;;;;;;8.81;59.25;101365.48;88193;1277;80136;-56
2022/02/13 07:48:09;;;;;;;14.80;10.10;;;;;;;9.47;59.88;101356.66;88177;1277;98654;-58
2022/02/13 07:50:15;;;;;;;15.30;10.00;;;;;;;10.04;57.79;101355.86;88222;1275;88487;-77
2022/02/13 07:52:24;;;;;;;15.40;10.10;;;;;;;10.35;57.24;101355.30;88221;1277;95295;-77
2022/02/13 07:54:31;;;;;;;17.20;10.50;;;;;;;11.13;57.93;101347.14;88199;1277;78586;-77
2022/02/13 07:56:38;;;;;;;15.30;10.50;;;;;;;11.90;56.57;101344.70;88233;1277;80209;-77
2022/02/13 07:58:47;;;;;;;17.00;11.00;;;;;;;12.29;55.05;101345.77;88239;1277;97799;-77
2022/02/13 08:00:53;;;;;;;16.70;10.80;;;;;;;12.78;55.56;101342.23;88220;1277;88179;-60
2022/02/13 08:02:58;;;;;;;14.00;10.40;;;;;;;13.25;53.89;101342.33;88199;1277;95520;-57
2022/02/13 08:05:05;;;;;;;12.20;9.50;;;;;;;13.60;54.67;101336.40;88106;1276;76994;-76
2022/02/13 08:07:11;;;;;;;16.00;10.50;;;;;;;13.99;50.92;101338.54;88198;1276;83857;-79
2022/02/13 08:09:20;;;;;;;13.60;9.60;;;;;;;13.99;50.40;101332.28;88158;1276;100414;-77
2022/02/13 08:11:28;;;;;;;15.10;9.90;;;;;;;14.10;50.15;101331.34;88148;1276;89340;-59
2022/02/13 08:13:35;;;;;;;14.10;9.90;;;;;;;14.00;48.17;101325.68;88064;1276;93280;-58
2022/02/13 08:15:44;;;;;;;14.00;10.20;;;;;;;14.25;49.36;101328.78;88164;1276;78284;-76
2022/02/13 08:17:49;;;;;;;15.20;10.70;;;;;;;14.59;48.93;101324.25;88168;1276;80267;-76
2022/02/13 08:19:55;;;;;;;14.90;10.40;;;;;;;14.88;49.03;101317.09;88075;1276;99735;-58
2022/02/13 08:22:00;;;;;;;13.00;9.70;;;;;;;15.00;48.65;101314.99;88191;1276;88850;-59
2022/02/13 08:24:07;;;;;;;14.30;9.30;;;;;;;15.33;46.98;101311.45;88145;1276;94861;-58
2022/02/13 08:26:19;;;;;;;14.80;10.70;;;;;;;15.45;45.17;101306.62;88175;1276;78517;-77
2022/02/13 08:28:26;;;;;;;13.40;10.30;;;;;;;15.39;45.54;101295.97;88176;1276;82387;-76
2022/02/13 08:30:34;;;;;;;13.50;9.70;;;;;;;15.63;43.35;101304.33;88143;1276;98660;-77
2022/02/13 08:32:40;;;;;;;15.40;10.20;;;;;;;15.68;44.22;101292.16;88192;1276;89144;-78
2022/02/13 08:34:45;;;;;;;14.70;9.90;;;;;;;15.78;44.08;101292.92;88187;1276;95516;-76
2022/02/13 08:36:54;;;;;;;14.00;10.20;;;;;;;15.72;44.52;101296.67;88167;1276;78595;-78
2022/02/13 08:38:59;;;;;;;14.80;10.50;;;;;;;15.86;44.63;101293.89;88170;1276;82037;-69
2022/02/13 08:41:08;;;;;;;16.30;9.80;;;;;;;15.31;42.39;101291.58;88130;1276;98731;-72
2022/02/13 08:43:16;;;;;;;13.50;9.30;;;;;;;15.18;42.77;101293.95;88101;1276;89262;-72
2022/02/13 08:45:25;;;;;;;14.20;10.40;;;;;;;14.74;42.32;101298.59;88166;1277;95314;-73
2022/02/13 08:47:30;;;;;;;12.50;10.10;;;;;;;14.75;40.67;101296.71;88169;1277;78043;-72
2022/02/13 08:49:37;;;;;;;12.10;9.60;;;;;;;14.50;41.21;101292.43;88192;1277;82832;-63
2022/02/13 08:51:46;;;;;;;13.30;10.80;;;;;;;14.45;39.76;101293.19;88181;1277;100164;-58
2022/02/13 08:53:56;;;;;;;13.20;9.90;;;;;;;14.05;41.77;101293.90;88191;1277;88669;-59
2022/02/13 08:56:01;;;;;;;14.20;10.10;;;;;;;14.41;40.34;101294.73;88176;1276;93155;-59
2022/02/13 08:58:07;;;;;;;14.60;10.60;;;;;;;14.55;41.27;101288.15;88169;1277;78768;-58
2022/02/13 09:00:16;;;;;;;13.60;10.50;;;;;;;14.73;41.62;101285.48;88190;1277;82863;-74
2022/02/13 09:02:22;;;;;;;12.70;10.20;;;;;;;14.55;39.47;101282.41;88197;1277;96457;-74
2022/02/13 09:04:27;;;;;;;14.00;10.10;;;;;;;14.45;39.84;101279.89;88181;1277;89522;-75
2022/02/13 09:06:38;;;;;;;12.70;9.60;;;;;;;14.53;39.68;101277.34;88188;1277;95987;-75
2022/02/13 09:08:47;;;;;;;12.30;9.60;;;;;;;14.53;39.58;101278.42;88186;1277;78159;-75
2022/02/13 09:10:53;;;;;;;12.60;9.90;;;;;;;14.68;39.29;101278.84;88175;1277;81058;-58
2022/02/13 09:12:58;;;;;;;16.00;10.90;;;;;;;14.29;38.85;101277.81;88165;1277;100235;-58
2022/02/13 09:15:06;;;;;;;13.80;9.20;;;;;;;14.51;39.89;101275.84;88168;1277;88829;-73
2022/02/13 09:17:12;;;;;;;12.30;9.70;;;;;;;14.44;40.12;101275.95;88165;1277;95151;-74
2022/02/13 09:19:19;;;;;;;14.00;11.00;;;;;;;14.52;39.95;101272.64;88184;1277;79482;-73
2022/02/13 09:21:25;;;;;;;12.20;9.80;;;;;;;14.53;38.94;101265.36;88203;1277;82643;-59
2022/02/13 09:23:31;;;;;;;13.70;10.00;;;;;;;14.50;39.59;101260.29;88195;1277;97899;-59
2022/02/13 09:25:37;;;;;;;13.40;9.60;;;;;;;14.39;38.90;101254.94;88171;1277;88262;-59
2022/02/13 09:27:46;;;;;;;12.80;9.60;;;;;;;14.38;38.28;101258.65;88168;1276;95176;-59
2022/02/13 09:29:52;;;;;;;13.70;10.10;;;;;;;14.54;39.00;101250.77;88164;1277;78895;-59
2022/02/13 09:31:59;;;;;;;12.60;9.20;;;;;;;14.35;39.67;101244.38;88185;1277;80501;-59
2022/02/13 09:34:04;;;;;;;13.10;9.70;;;;;;;14.41;39.32;101234.30;88193;1277;99824;-59
2022/02/13 09:36:10;;;;;;;13.60;9.30;;;;;;;14.51;39.47;101237.66;88205;1277;89419;-77
2022/02/13 09:38:16;;;;;;;12.40;9.20;;;;;;;14.53;39.30;101235.59;88169;1277;95288;-77
2022/02/13 09:40:22;;;;;;;11.60;8.80;;;;;;;14.40;38.38;101236.40;88218;1277;79053;-73